OMDBVOCI

Guest
Details From OMDB - Dubai Intl
To VOCI - Cochin Intl
Flight Number -
Tags Generated
Created
Modified
Stats Distance 1,504 nm / 2,785 km
Max Altitude 0 ft / 0 m
Waypoints 3
Social Downloads 1
Likes 0
Share VATSIM

Download

Looking for another format? Having issues loading an existing format? Contact us
Advertisement - Login to hide

Notes

Generated

Route

OMDB CIA VOCI

ID Type Via Altitude Latitude Longitude Leg Dist Tot Dist Heading (true) Name
O OMDB APT - 0 ft / 0 m 25.26213˚ 55.34757˚ - 0 nm - -
CIA VOR - 0 ft / 0 m 10.15050˚ 76.37258˚ 1502 nm 1502 nm 123° / 130° COCHIN INTL VOR-DME
O VOCI APT - 0 ft / 0 m 10.15143˚ 76.38641˚ 0 nm 1503 nm 86° / 86° -

Altitude Profile

Advertisement - Login to hide

Weather


0- 5 10 15 20 25 30 35+ Temperature / ° C

Clouds and Precipitation
Forecast for 2017-12-15 00:00 UTC. Updated 2 hours ago

Ground ~20,000 ft ~40,000 ft Winds

OMDB

Details ICAO OMDB (DXB)
Name DUBAI INTL
Region United Arab Emirates
Timezone Asia/Dubai (UTC+4.0)
Stats Elevation 62 ft / 19 m (AMSL)
Location 25.254912° 55.364260°
Runways 2
Magnetic Variation 2.047° E

METAR

OMDB 150100Z 12011KT CAVOK 20/12 Q1016 NOSIG

Decode

TAF

TAF OMDB 142255Z 1500/1606 14008KT 8000 FEW040 PROB30 TEMPO 1505/1508 17015G25KT 4000 BLDU PROB40 1510/1515 36010KT

Decode

Departure Runways

ID Width Length Bearing (true) Bearing (mag) Surface Threshold Offset Overrun Length
12L 197 ft / 60 m 13,124 ft / 4,000 m 121.49° 119.44° Asphalt 1,312 ft / 400 m 395 ft / 120 m
12R 151 ft / 46 m 13,139 ft / 4,005 m 121.48° 119.43° Asphalt 394 ft / 120 m 197 ft / 60 m
30L 151 ft / 46 m 13,139 ft / 4,005 m 301.50° 299.45° Asphalt 2,953 ft / 900 m 197 ft / 60 m
30R 197 ft / 60 m 13,124 ft / 4,000 m 301.51° 299.46° Asphalt 0 ft / 0 m 395 ft / 120 m

VOCI

Details ICAO VOCI (COK)
Name COCHIN INTL
Region India
Timezone Asia/Kolkata (UTC+5.5)
Stats Elevation 30 ft / 9 m (AMSL)
Location 10.151996° 76.401905°
Runways 1
Magnetic Variation 1.654° W

METAR

VOCI 150030Z 00000KT 3000 HZ FEW015 SCT080 24/20 Q1011 BECMG 2000 BR

Decode

TAF

TAF TAF VOCI 142300Z 1500/1606 00000KT 1500 BR SCT006 SCT090 BECMG 1503/1504 3000 BR FEW015 SCT080 BECMG 1507/1508 22010KT 5000 HZ TEMPO 1510/1514 22005KT 3000 TSRARA SCT012 FEW025CB BKN080 BECMG 1514/1515 00000KT 4000 HZ SCT015 TEMPO 1522/1602 2000 BR FEW008 SCT090

Decode

Destination Runways

ID Width Length Bearing (true) Bearing (mag) Surface Threshold Offset Overrun Length
09 148 ft / 45 m 11,139 ft / 3,395 m 87.86° 89.51° Asphalt 0 ft / 0 m 195 ft / 59 m
27 148 ft / 45 m 11,139 ft / 3,395 m 267.87° 269.52° Asphalt 0 ft / 0 m 195 ft / 59 m

Approach Navaids

Runway Type Ident Frequency Range Bearing (true) Bearing (mag) Slope Elevation
27 Localiser ICIL 110.30 MHz 18 nm / 33 km 266.21° 267.86° - 30 ft / 9 m (AMSL)
27 Glidescope ICIL 110.30 MHz 10 nm / 19 km 267.87° 269.52° 3.00° 28 ft / 9 m (AMSL)
27 DME ICIL 110.30 MHz 18 nm / 33 km - - - 40 ft / 12 m (AMSL)

Popular Alternatives